Arcadia, KS

2:22 AM CDT on July 31, 2014 (GMT -0500)
Frontenac Industrial Park (KKSFRONT7) Elev 965 ft | 37.49 °N, 94.70 °W | Change Station

Current weather conditions updated 2 seconds ago

Mostly Cloudy
Mostly Cloudy
65.7 °F
Feels Like 65.7 °F
N
1.6
Wind Variable Wind from NW
Gusts 3.8 mph

Today is forecast to be Much Warmer than yesterday.

Today
High -- | Low -- °F
--% Chance of Precip.
Yesterday
High -- | Low -- °F
Precip. -- in
6:21 AM 8:28 PM
Waxing Crescent, 16% visible
Pressure 30.09 in
Visibility 4.0 miles
Clouds Mostly Cloudy 7000 ft
Dew Point 50 °F
Humidity 58%
Rainfall 0.00 in
Snow Depth Not available.
UV 0 out of 12
Pollen 5.30 out of 12
Air Quality Not available.
Flu Activity Not available.
METAR KPTS 310715Z AUTO 00000KT 4SM BKN070 18/18 A3009 RMK AO2 T01820183

More Conditions Fewer Conditions

Pressure 30.09 in
Visibility 4.0 miles
Clouds Mostly Cloudy 7000 ft
Dew Point 50 °F
Humidity 58%
Rainfall 0.00 in
Snow Depth Not available.
UV 0 out of 12
Pollen 5.30 out of 12
Air Quality Not available.
Flu Activity Not available.
METAR KPTS 310715Z AUTO 00000KT 4SM BKN070 18/18 A3009 RMK AO2 T01820183

More Conditions Fewer Conditions

10-Day Weather Forecast

Almanac

Astronomy

Jul. 31, 2014 Rise Set
Actual Time 6:21 AM CDT 8:28 PM CDT
Civil Twilight 5:52 AM CDT 8:57 PM CDT
Nautical Twilight 5:17 AM CDT 9:32 PM CDT
Astronomical Twilight 4:38 AM CDT 10:10 PM CDT
Moon 10:43 AM CDT 10:47 PM CDT
Length of Visible Light 15h 04m
Length of Day
14h 06m
Tomorrow will be 1m 49s shorter.
Waxing Crescent, 16% of the Moon is Illuminated
Today
Waxing Crescent
Aug 3
First Quarter
Aug 10
Full
Aug 17
Last Quarter
Aug 25
New

Today's Extremes

State Highs State Lows

Community

WunderPhotos

Upload Photos

1,739,257 photos uploaded!

Nearby

Snow Depth

Station Depth Elevation
No new snow has been reported.

Earthquake Activity

City Distance Mag. Time & Date
No recent earthquake activity has been reported nearby.
Minimum magnitude displayed is 2.5.

Coastal Water Temperatures

Place Temperature
No Stations Reporting

Nearby Weather Stations

Station Location Temp. Dew Point Humidity Wind Precip. Elev Updated Type
Frontenac Industrial Park, Frontenac, KS 65.7 °F 50 °F 58% NW  at  1.6 mph 0.00 in / hr 965 ft 2:22 AM CDT Rapid Fire
Frontenac KS, Frontenac, KS 64.0 °F 60 °F 87% North  at  0.0 mph 0.00 in / hr 948 ft 1:28 AM CDT Rapid Fire
Frontenac, KS 63.3 °F 63 °F 98% ENE  at  0.0 mph 0.00 in / hr 942 ft 2:22 AM CDT Rapid Fire
Southwest Pittsburg, Kansas, Pittsburg, KS 66.0 °F 64 °F 94% North  at  - - / hr 935 ft 2:20 AM CDT Normal
Irwin, MO, Lamar, MO 64.9 °F 63 °F 93% SE  at  0.0 mph 0.01 in / hr 955 ft 2:17 AM CDT Normal
Vernon Co. EOC, Nevada, MO 65.3 °F 63 °F 91% SSE  at  0.0 mph 0.00 in / hr 900 ft 2:22 AM CDT Rapid Fire
Nevada, Nevada, MO 61.3 °F 59 °F 91% NE  at  0.0 mph 0.00 in / hr 863 ft 3:22 AM EDT Rapid Fire

Show More Stations Show Fewer Stations